Terminal Aerodrome Forecast
Issued by NWS

Home | Current Version | Previous Version | Text Only | Print | Product List | Glossary On
Versions: 1 2 3 4 5 6 7 8 9 10 11 12 13 14 15 16 17 18 19 20 21
000
FTUS43 KIND 061100
TAFBMG
TAF
KBMG 061125Z 0612/0712 00000KT 5SM BR SKC
     FM061300 19007KT P6SM SCT040
     FM070000 20005KT P6SM SCT250
     FM070900 20005KT P6SM BKN150
      AMD LTD TO CLD VIS AND WIND TIL 061300=

USA.gov is the U.S. government's official web portal to all federal, state and local government web resources and services.